createdAt,value
2022-11-30T00:00:39.046Z,100930.25
2022-11-30T00:01:41.317Z,100929.19
2022-11-30T00:02:43.812Z,100928.78
2022-11-30T00:03:46.999Z,100929.00
2022-11-30T00:04:49.532Z,100932.75
2022-11-30T00:05:52.170Z,100940.78
2022-11-30T00:06:57.378Z,100936.38
2022-11-30T00:08:01.330Z,100934.47
2022-11-30T00:09:03.684Z,100940.78
2022-11-30T00:10:07.383Z,100936.97
2022-11-30T00:11:12.695Z,100937.19
2022-11-30T00:12:14.942Z,100931.94
2022-11-30T00:13:17.126Z,100935.31
2022-11-30T00:14:19.330Z,100935.31
2022-11-30T00:15:21.543Z,100934.47
2022-11-30T00:16:30.160Z,100935.31
2022-11-30T00:17:32.435Z,100935.31
2022-11-30T00:18:34.778Z,100937.41
2022-11-30T00:19:40.041Z,100939.31
2022-11-30T00:20:42.231Z,100940.34
2022-11-30T00:21:44.410Z,100942.22
2022-11-30T00:22:46.622Z,100939.47
2022-11-30T00:23:51.100Z,100940.56
2022-11-30T00:24:53.342Z,100941.38
2022-11-30T00:25:55.510Z,100932.34
2022-11-30T00:26:57.755Z,100935.72
2022-11-30T00:28:00.609Z,100943.06
2022-11-30T00:29:10.438Z,100950.41
2022-11-30T00:30:13.341Z,100944.13
2022-11-30T00:31:17.339Z,100946.03
2022-11-30T00:32:19.611Z,100945.16
2022-11-30T00:33:21.838Z,100942.41
2022-11-30T00:34:24.075Z,100948.94
2022-11-30T00:35:26.323Z,100939.69
2022-11-30T00:36:28.583Z,100938.00
2022-11-30T00:37:30.844Z,100947.88
2022-11-30T00:38:33.884Z,100946.19
2022-11-30T00:39:36.132Z,100945.38
2022-11-30T00:40:38.342Z,100942.63
2022-11-30T00:41:40.669Z,100938.84
2022-11-30T00:42:42.934Z,100938.00
2022-11-30T00:43:45.639Z,100943.47
2022-11-30T00:44:48.128Z,100950.84
2022-11-30T00:45:50.837Z,100945.38
2022-11-30T00:46:53.173Z,100946.19
2022-11-30T00:47:55.380Z,100947.06
2022-11-30T00:48:57.660Z,100950.84
2022-11-30T00:49:59.913Z,100942.41
2022-11-30T00:51:02.195Z,100942.41
2022-11-30T00:52:04.661Z,100951.50
2022-11-30T00:53:07.130Z,100948.75
2022-11-30T00:54:10.011Z,100950.63
2022-11-30T00:55:12.209Z,100950.63
2022-11-30T00:56:14.863Z,100951.50
2022-11-30T00:57:17.186Z,100951.66
2022-11-30T00:58:19.857Z,100952.53
2022-11-30T00:59:22.046Z,100947.06
2022-11-30T01:00:24.335Z,100950.84
2022-11-30T01:01:26.697Z,100946.19
2022-11-30T01:02:28.961Z,100945.38
2022-11-30T01:03:31.227Z,100950.84
2022-11-30T01:04:33.509Z,100948.94
2022-11-30T01:05:36.649Z,100950.84
2022-11-30T01:06:39.287Z,100950.84
2022-11-30T01:07:41.489Z,100960.72
2022-11-30T01:08:43.799Z,100950.00
2022-11-30T01:09:46.002Z,100948.09
2022-11-30T01:10:53.354Z,100949.78
2022-11-30T01:11:55.660Z,100945.38
2022-11-30T01:12:57.863Z,100947.28
2022-11-30T01:14:01.013Z,100955.25
2022-11-30T01:15:03.646Z,100950.84
2022-11-30T01:16:11.358Z,100959.88
2022-11-30T01:17:13.664Z,100953.56
2022-11-30T01:18:16.060Z,100959.69
2022-11-30T01:19:18.344Z,100953.34
2022-11-30T01:20:20.650Z,100941.59
2022-11-30T01:21:25.901Z,100940.56
2022-11-30T01:22:29.056Z,100935.25
2022-11-30T01:23:31.278Z,100947.06
2022-11-30T01:24:33.850Z,100932.53
2022-11-30T01:25:36.313Z,100935.25
2022-11-30T01:26:38.555Z,100933.38
2022-11-30T01:27:40.789Z,100942.41
2022-11-30T01:28:46.109Z,100938.84
2022-11-30T01:29:48.322Z,100941.59
2022-11-30T01:31:16.148Z,100936.13
2022-11-30T01:32:18.486Z,100934.44
2022-11-30T01:33:20.734Z,100936.13
2022-11-30T01:34:22.960Z,100939.69
2022-11-30T01:35:25.145Z,100942.63
2022-11-30T01:36:27.364Z,100938.84
2022-11-30T01:37:32.711Z,100944.31
2022-11-30T01:38:40.759Z,100939.69
2022-11-30T01:39:45.739Z,100938.00
2022-11-30T01:40:54.161Z,100936.97
2022-11-30T01:41:56.439Z,100941.59
2022-11-30T01:42:58.634Z,100947.06
2022-11-30T01:44:06.893Z,100933.19
2022-11-30T01:45:12.881Z,100941.59
2022-11-30T01:46:38.755Z,100945.38
2022-11-30T01:47:46.572Z,100948.09
2022-11-30T01:48:56.084Z,100948.94
2022-11-30T01:50:04.370Z,100950.84
2022-11-30T01:51:09.202Z,100947.06
2022-11-30T01:52:15.709Z,100942.63
2022-11-30T01:53:18.013Z,100948.94
2022-11-30T01:54:25.054Z,100946.19
2022-11-30T01:55:35.928Z,100936.13
2022-11-30T01:56:43.220Z,100947.06
2022-11-30T01:57:51.564Z,100946.19
2022-11-30T01:58:53.776Z,100952.53
2022-11-30T01:59:59.049Z,100945.38
2022-11-30T02:01:01.478Z,100951.66
2022-11-30T02:02:03.760Z,100950.00
2022-11-30T02:03:11.428Z,100943.47
2022-11-30T02:04:13.565Z,100946.19
2022-11-30T02:05:17.400Z,100952.53
2022-11-30T02:06:19.796Z,100947.06
2022-11-30T02:07:22.290Z,100936.13
2022-11-30T02:08:25.202Z,100944.53
2022-11-30T02:09:29.091Z,100943.66
2022-11-30T02:10:34.687Z,100950.00
2022-11-30T02:11:37.052Z,100943.47
2022-11-30T02:12:58.954Z,100948.09
2022-11-30T02:14:24.164Z,100950.00
2022-11-30T02:15:31.546Z,100949.13
2022-11-30T02:16:55.918Z,100938.19
2022-11-30T02:18:19.546Z,100943.66
2022-11-30T02:19:39.901Z,100940.94
2022-11-30T02:21:05.463Z,100945.56
2022-11-30T02:22:28.357Z,100943.88
2022-11-30T02:23:43.339Z,100943.03
2022-11-30T02:24:59.576Z,100947.47
2022-11-30T02:26:30.347Z,100954.59
2022-11-30T02:27:47.578Z,100951.03
2022-11-30T02:29:47.552Z,100949.34
2022-11-30T02:30:54.065Z,100954.81
2022-11-30T02:32:10.087Z,100949.56
2022-11-30T02:33:16.632Z,100953.13
2022-11-30T02:34:22.413Z,100955.84
2022-11-30T02:35:29.236Z,100965.13
2022-11-30T02:36:32.444Z,100956.25
2022-11-30T02:37:37.216Z,100967.19
2022-11-30T02:38:40.315Z,100955.44
2022-11-30T02:39:46.480Z,100959.00
2022-11-30T02:40:48.901Z,100962.56
2022-11-30T02:41:54.121Z,100962.56
2022-11-30T02:43:00.246Z,100955.44
2022-11-30T02:44:03.798Z,100951.63
2022-11-30T02:45:08.092Z,100960.03
2022-11-30T02:46:23.541Z,100948.28
2022-11-30T02:47:32.734Z,100950.13
2022-11-30T02:48:45.784Z,100949.09
2022-11-30T02:49:53.630Z,100953.75
2022-11-30T02:51:00.899Z,100953.75
2022-11-30T02:52:05.495Z,100957.50
2022-11-30T02:53:09.689Z,100960.03
2022-11-30T02:54:12.433Z,100958.34
2022-11-30T02:55:17.633Z,100950.34
2022-11-30T02:56:20.848Z,100952.03
2022-11-30T02:57:25.560Z,100954.97
2022-11-30T02:58:31.009Z,100965.72
2022-11-30T02:59:33.589Z,100965.72
2022-11-30T03:00:35.971Z,100962.97
2022-11-30T03:01:39.828Z,100958.56
2022-11-30T03:02:42.635Z,100970.34
2022-11-30T03:03:45.189Z,100957.72
2022-11-30T03:04:47.618Z,100965.06
2022-11-30T03:05:49.956Z,100966.75
2022-11-30T03:06:52.274Z,100964.22
2022-11-30T03:07:54.579Z,100966.97
2022-11-30T03:08:56.841Z,100972.22
2022-11-30T03:10:00.096Z,100967.78
2022-11-30T03:11:04.910Z,100969.69
2022-11-30T03:12:07.281Z,100976.00
2022-11-30T03:13:09.526Z,100973.47
2022-11-30T03:14:11.801Z,100975.16
2022-11-30T03:15:14.130Z,100975.38
2022-11-30T03:16:16.458Z,100973.66
2022-11-30T03:17:21.687Z,100976.19
2022-11-30T03:18:23.916Z,100979.78
2022-11-30T03:19:28.975Z,100974.50
2022-11-30T03:20:31.363Z,100977.22
2022-11-30T03:21:33.725Z,100980.81
2022-11-30T03:22:36.025Z,100983.78
2022-11-30T03:23:39.166Z,100983.78
2022-11-30T03:24:41.338Z,100983.78
2022-11-30T03:25:43.542Z,100983.09
2022-11-30T03:26:45.782Z,100986.69
2022-11-30T03:27:47.953Z,100995.94
2022-11-30T03:28:50.209Z,100991.50
2022-11-30T03:29:52.468Z,100989.63
2022-11-30T03:30:57.218Z,100991.50
2022-11-30T03:31:59.504Z,100985.19
2022-11-30T03:33:01.738Z,100992.56
2022-11-30T03:34:04.077Z,100984.34
2022-11-30T03:35:06.637Z,100987.09
2022-11-30T03:36:11.349Z,100990.84
2022-11-30T03:37:13.725Z,100980.97
2022-11-30T03:38:15.935Z,100983.69
2022-11-30T03:39:18.232Z,100986.63
2022-11-30T03:40:20.447Z,100983.06
2022-11-30T03:41:22.651Z,100986.63
2022-11-30T03:42:24.892Z,100982.41
2022-11-30T03:43:27.146Z,100982.41
2022-11-30T03:44:30.076Z,100987.88
2022-11-30T03:45:32.278Z,100987.03
2022-11-30T03:46:34.548Z,100982.63
2022-11-30T03:47:37.335Z,100988.09
2022-11-30T03:48:43.399Z,100992.72
2022-11-30T03:49:47.951Z,100992.91
2022-11-30T03:50:50.625Z,100995.81
2022-11-30T03:51:52.866Z,100993.09
2022-11-30T03:52:57.395Z,100991.44
2022-11-30T03:53:59.663Z,100998.75
2022-11-30T03:55:05.064Z,101001.50
2022-11-30T03:56:14.371Z,100986.13
2022-11-30T03:57:16.574Z,100993.72
2022-11-30T03:58:18.965Z,100993.72
2022-11-30T03:59:21.166Z,100992.22
2022-11-30T04:00:23.441Z,100992.22
2022-11-30T04:01:31.389Z,100994.09
2022-11-30T04:02:41.551Z,100999.94
2022-11-30T04:03:48.350Z,100989.03
2022-11-30T04:04:53.569Z,100991.97
2022-11-30T04:05:56.749Z,100994.69
2022-11-30T04:06:59.157Z,100991.09
2022-11-30T04:08:01.344Z,100987.94
2022-11-30T04:09:03.777Z,100985.22
2022-11-30T04:10:12.736Z,100986.25
2022-11-30T04:11:16.243Z,100993.59
2022-11-30T04:12:21.257Z,100989.38
2022-11-30T04:13:24.497Z,100978.63
2022-11-30T04:14:26.781Z,100988.72
2022-11-30T04:15:28.967Z,100993.34
2022-11-30T04:16:31.278Z,100988.94
2022-11-30T04:17:33.592Z,100994.59
2022-11-30T04:18:37.248Z,100996.47
2022-11-30T04:19:39.431Z,100993.94
2022-11-30T04:20:42.111Z,100993.09
2022-11-30T04:21:44.402Z,100991.59
2022-11-30T04:22:46.678Z,100985.28
2022-11-30T04:23:49.010Z,100988.88
2022-11-30T04:24:51.240Z,100991.78
2022-11-30T04:25:53.425Z,100991.16
2022-11-30T04:26:55.599Z,100998.69
2022-11-30T04:27:58.137Z,101000.56
2022-11-30T04:29:04.165Z,100998.06
2022-11-30T04:30:10.442Z,100996.34
2022-11-30T04:31:14.541Z,100993.81
2022-11-30T04:32:16.851Z,100989.41
2022-11-30T04:33:19.180Z,100996.75
2022-11-30T04:34:21.358Z,100994.19
2022-11-30T04:35:23.582Z,100999.88
2022-11-30T04:36:25.764Z,100993.56
2022-11-30T04:37:28.023Z,101000.06
2022-11-30T04:38:31.136Z,100997.53
2022-11-30T04:39:36.836Z,101001.28
2022-11-30T04:40:40.909Z,101000.63
2022-11-30T04:41:43.193Z,100998.97
2022-11-30T04:42:48.540Z,100998.09
2022-11-30T04:43:50.769Z,100994.75
2022-11-30T04:44:52.987Z,101006.50
2022-11-30T04:45:55.242Z,101006.69
2022-11-30T04:46:57.484Z,100997.84
2022-11-30T04:48:00.550Z,100999.75
2022-11-30T04:49:03.180Z,101000.78
2022-11-30T04:50:06.344Z,101005.41
2022-11-30T04:51:09.562Z,101005.59
2022-11-30T04:52:11.821Z,101002.22
2022-11-30T04:53:14.122Z,101000.31
2022-11-30T04:54:16.350Z,100994.22
2022-11-30T04:55:19.645Z,101000.50
2022-11-30T04:56:22.493Z,100997.97
2022-11-30T04:57:24.908Z,100994.59
2022-11-30T04:58:27.484Z,100996.47
2022-11-30T04:59:33.016Z,100994.78
2022-11-30T05:00:36.555Z,100997.50
2022-11-30T05:01:38.823Z,100997.72
2022-11-30T05:02:41.506Z,100998.56
2022-11-30T05:03:44.526Z,100998.75
2022-11-30T05:04:47.264Z,100993.28
2022-11-30T05:05:49.732Z,100999.78
2022-11-30T05:06:51.994Z,100994.53
2022-11-30T05:07:58.877Z,101001.88
2022-11-30T05:09:01.159Z,101007.53
2022-11-30T05:10:05.171Z,101012.13
2022-11-30T05:11:07.414Z,101003.94
2022-11-30T05:12:09.767Z,101011.28
2022-11-30T05:13:12.156Z,101012.13
2022-11-30T05:14:14.616Z,101007.69
2022-11-30T05:15:17.162Z,101018.63
2022-11-30T05:16:19.401Z,101010.44
2022-11-30T05:17:21.645Z,101008.94
2022-11-30T05:18:24.040Z,101015.47
2022-11-30T05:19:26.380Z,101009.13
2022-11-30T05:20:29.255Z,101012.03
2022-11-30T05:21:31.764Z,101020.91
2022-11-30T05:22:36.873Z,101016.47
2022-11-30T05:23:39.154Z,101023.78
2022-11-30T05:24:41.373Z,101022.09
2022-11-30T05:25:44.543Z,101012.22
2022-11-30T05:26:46.819Z,101014.97
2022-11-30T05:27:49.058Z,101018.72
2022-11-30T05:28:51.284Z,101017.88
2022-11-30T05:29:53.589Z,101023.53
2022-11-30T05:30:58.177Z,101026.25
2022-11-30T05:32:00.857Z,101029.00
2022-11-30T05:33:03.145Z,101026.25
2022-11-30T05:34:05.705Z,101034.44
2022-11-30T05:35:08.752Z,101030.03
2022-11-30T05:36:11.205Z,101034.81
2022-11-30T05:37:16.540Z,101037.53
2022-11-30T05:38:19.643Z,101040.28
2022-11-30T05:39:21.845Z,101037.53
2022-11-30T05:40:25.786Z,101037.75
2022-11-30T05:41:28.008Z,101039.81
2022-11-30T05:42:30.312Z,101032.47
2022-11-30T05:43:32.537Z,101037.94
2022-11-30T05:44:34.729Z,101038.13
2022-11-30T05:45:37.035Z,101034.53
2022-11-30T05:46:42.295Z,101040.00
2022-11-30T05:47:44.534Z,101032.84
2022-11-30T05:48:49.864Z,101048.38
2022-11-30T05:49:52.090Z,101043.94
2022-11-30T05:50:54.686Z,101038.69
2022-11-30T05:51:56.878Z,101047.72
2022-11-30T05:53:00.991Z,101047.72
2022-11-30T05:54:03.301Z,101046.03
2022-11-30T05:55:05.993Z,101049.81
2022-11-30T05:56:16.157Z,101054.22
2022-11-30T05:57:18.366Z,101057.13
2022-11-30T05:58:20.583Z,101050.00
2022-11-30T05:59:23.439Z,101046.41
2022-11-30T06:00:25.688Z,101045.78
2022-11-30T06:01:29.521Z,101050.38
2022-11-30T06:02:31.884Z,101052.44
2022-11-30T06:03:35.775Z,101048.84
2022-11-30T06:04:38.008Z,101056.22
2022-11-30T06:05:40.261Z,101056.41
2022-11-30T06:06:42.562Z,101056.59
2022-11-30T06:07:44.850Z,101062.06
2022-11-30T06:08:48.888Z,101051.31
2022-11-30T06:09:51.072Z,101063.28
2022-11-30T06:10:54.100Z,101063.28
2022-11-30T06:11:56.325Z,101062.41
2022-11-30T06:12:58.600Z,101061.78
2022-11-30T06:14:00.826Z,101062.81
2022-11-30T06:15:03.596Z,101061.94
2022-11-30T06:16:19.535Z,101056.69
2022-11-30T06:17:21.810Z,101057.91
2022-11-30T06:18:24.000Z,101055.38
2022-11-30T06:19:26.183Z,101061.84
2022-11-30T06:20:28.395Z,101060.00
2022-11-30T06:21:30.583Z,101054.69
2022-11-30T06:22:34.194Z,101063.94
2022-11-30T06:23:39.589Z,101064.97
2022-11-30T06:24:41.857Z,101065.16
2022-11-30T06:25:44.131Z,101056.31
2022-11-30T06:26:46.366Z,101063.66
2022-11-30T06:27:48.678Z,101066.38
2022-11-30T06:28:50.872Z,101063.00
2022-11-30T06:29:53.103Z,101064.88
2022-11-30T06:30:58.800Z,101065.72
2022-11-30T06:32:01.239Z,101065.06
2022-11-30T06:33:03.863Z,101066.09
2022-11-30T06:34:06.027Z,101064.41
2022-11-30T06:35:08.628Z,101064.59
2022-11-30T06:36:10.895Z,101066.47
2022-11-30T06:37:13.078Z,101063.94
2022-11-30T06:38:16.313Z,101069.56
2022-11-30T06:39:31.491Z,101065.16
2022-11-30T06:40:40.925Z,101069.97
2022-11-30T06:41:43.140Z,101072.00
2022-11-30T06:42:45.455Z,101076.63
2022-11-30T06:43:49.953Z,101074.09
2022-11-30T06:44:52.211Z,101078.69
2022-11-30T06:45:54.529Z,101074.44
2022-11-30T06:46:56.779Z,101084.31
2022-11-30T06:47:59.005Z,101074.63
2022-11-30T06:49:01.282Z,101079.25
2022-11-30T06:50:05.265Z,101075.84
2022-11-30T06:51:09.356Z,101084.03
2022-11-30T06:52:13.859Z,101082.34
2022-11-30T06:53:16.095Z,101077.91
2022-11-30T06:54:18.319Z,101078.28
2022-11-30T06:55:20.525Z,101080.19
2022-11-30T06:56:22.750Z,101083.94
2022-11-30T06:57:31.236Z,101076.78
2022-11-30T06:58:33.771Z,101084.13
2022-11-30T06:59:42.454Z,101084.28
2022-11-30T07:00:44.750Z,101088.91
2022-11-30T07:01:47.040Z,101082.78
2022-11-30T07:02:49.254Z,101092.84
2022-11-30T07:03:51.633Z,101088.41
2022-11-30T07:04:53.887Z,101087.78
2022-11-30T07:05:56.225Z,101094.25
2022-11-30T07:06:58.491Z,101089.81
2022-11-30T07:08:02.364Z,101096.31
2022-11-30T07:09:06.496Z,101097.16
2022-11-30T07:10:14.784Z,101099.22
2022-11-30T07:11:21.070Z,101097.50
2022-11-30T07:12:26.482Z,101107.59
2022-11-30T07:13:29.333Z,101096.00
2022-11-30T07:14:31.541Z,101107.78
2022-11-30T07:15:33.744Z,101106.91
2022-11-30T07:16:36.083Z,101103.34
2022-11-30T07:17:38.471Z,101105.22
2022-11-30T07:18:45.214Z,101102.66
2022-11-30T07:19:47.458Z,101101.84
2022-11-30T07:20:49.696Z,101106.44
2022-11-30T07:21:51.899Z,101107.47
2022-11-30T07:22:57.246Z,101109.34
2022-11-30T07:24:20.646Z,101116.47
2022-11-30T07:25:41.899Z,101115.66
2022-11-30T07:26:44.097Z,101120.22
2022-11-30T07:27:46.284Z,101118.56
2022-11-30T07:28:54.818Z,101116.84
2022-11-30T07:29:57.226Z,101112.25
2022-11-30T07:30:59.444Z,101114.97
2022-11-30T07:32:01.789Z,101113.25
2022-11-30T07:33:03.985Z,101120.41
2022-11-30T07:34:08.133Z,101125.88
2022-11-30T07:35:12.576Z,101123.13
2022-11-30T07:36:16.002Z,101125.88
2022-11-30T07:37:18.197Z,101123.13
2022-11-30T07:38:21.019Z,101126.72
2022-11-30T07:39:24.491Z,101122.31
2022-11-30T07:40:26.803Z,101127.56
2022-11-30T07:41:29.506Z,101119.19
2022-11-30T07:42:31.729Z,101125.69
2022-11-30T07:43:34.131Z,101120.91
2022-11-30T07:44:36.494Z,101112.72
2022-11-30T07:45:38.769Z,101116.28
2022-11-30T07:46:40.989Z,101124.31
2022-11-30T07:47:43.230Z,101126.84
2022-11-30T07:48:46.554Z,101120.38
2022-11-30T07:49:48.764Z,101123.75
2022-11-30T07:50:54.327Z,101128.16
2022-11-30T07:51:56.775Z,101131.56
2022-11-30T07:52:58.969Z,101135.13
2022-11-30T07:54:01.241Z,101128.47
2022-11-30T07:55:03.605Z,101127.44
2022-11-30T07:56:08.511Z,101129.97
2022-11-30T07:57:11.517Z,101118.69
2022-11-30T07:58:17.637Z,101127.53
2022-11-30T07:59:19.930Z,101117.28
2022-11-30T08:00:22.125Z,101124.25
2022-11-30T08:01:28.945Z,101131.03
2022-11-30T08:02:31.260Z,101126.25
2022-11-30T08:03:37.122Z,101130.28
2022-11-30T08:04:42.244Z,101121.75
2022-11-30T08:05:44.483Z,101132.06
2022-11-30T08:06:46.676Z,101130.88
2022-11-30T08:07:52.751Z,101129.44
2022-11-30T08:08:57.782Z,101123.66
2022-11-30T08:10:00.031Z,101126.84
2022-11-30T08:11:02.757Z,101123.53
2022-11-30T08:12:05.111Z,101128.44
2022-11-30T08:13:07.506Z,101134.34
2022-11-30T08:14:13.578Z,101131.91
2022-11-30T08:15:21.220Z,101133.91
2022-11-30T08:16:27.247Z,101131.44
2022-11-30T08:17:29.514Z,101132.56
2022-11-30T08:18:31.708Z,101130.31
2022-11-30T08:19:34.072Z,101124.09
2022-11-30T08:20:36.568Z,101129.69
2022-11-30T08:21:39.522Z,101125.31
2022-11-30T08:22:41.693Z,101126.47
2022-11-30T08:23:46.781Z,101127.38
2022-11-30T08:24:52.125Z,101123.88
2022-11-30T08:25:54.345Z,101127.72
2022-11-30T08:26:56.630Z,101121.50
2022-11-30T08:27:58.826Z,101123.47
2022-11-30T08:29:01.969Z,101119.31
2022-11-30T08:30:04.947Z,101132.81
2022-11-30T08:31:16.192Z,101118.19
2022-11-30T08:32:18.639Z,101123.72
2022-11-30T08:33:21.005Z,101122.31
2022-11-30T08:34:23.261Z,101119.66
2022-11-30T08:35:25.467Z,101128.09
2022-11-30T08:36:30.137Z,101136.38
2022-11-30T08:37:32.446Z,101137.47
2022-11-30T08:38:35.208Z,101133.94
2022-11-30T08:39:37.517Z,101132.28
2022-11-30T08:40:41.490Z,101128.13
2022-11-30T08:41:43.734Z,101142.50
2022-11-30T08:42:45.951Z,101146.34
2022-11-30T08:43:49.801Z,101142.81
2022-11-30T08:44:59.884Z,101140.31
2022-11-30T08:46:21.179Z,101140.19
2022-11-30T08:47:28.419Z,101148.84
2022-11-30T08:48:30.942Z,101153.53
2022-11-30T08:49:33.135Z,101148.31
2022-11-30T08:50:35.701Z,101146.47
2022-11-30T08:52:14.654Z,101148.38
2022-11-30T08:53:06.081Z,101142.56
2022-11-30T08:54:08.640Z,101146.34
2022-11-30T08:55:10.873Z,101150.00
2022-11-30T08:56:21.654Z,101146.63
2022-11-30T08:57:23.848Z,101156.38
2022-11-30T08:58:27.173Z,101145.44
2022-11-30T08:59:31.777Z,101152.00
2022-11-30T09:00:34.021Z,101141.06
2022-11-30T09:01:36.417Z,101151.22
2022-11-30T09:02:38.654Z,101147.03
2022-11-30T09:03:42.282Z,101147.25
2022-11-30T09:04:49.094Z,101147.25
2022-11-30T09:05:51.764Z,101149.41
2022-11-30T09:06:59.154Z,101152.34
2022-11-30T09:08:13.392Z,101148.75
2022-11-30T09:09:27.667Z,101152.81
2022-11-30T09:10:37.426Z,101154.69
2022-11-30T09:12:08.405Z,101157.84
2022-11-30T09:13:25.104Z,101150.06
2022-11-30T09:14:37.706Z,101151.34
2022-11-30T09:16:03.194Z,101154.28
2022-11-30T09:17:29.572Z,101155.78
2022-11-30T09:19:01.662Z,101154.28
2022-11-30T09:20:05.189Z,101146.50
2022-11-30T09:21:29.766Z,101149.47
2022-11-30T09:22:52.158Z,101156.19
2022-11-30T09:24:12.270Z,101154.72
2022-11-30T09:25:24.572Z,101156.84
2022-11-30T09:26:46.387Z,101157.06
2022-11-30T09:28:06.791Z,101146.69
2022-11-30T09:29:22.246Z,101156.59
2022-11-30T09:30:41.628Z,101161.69
2022-11-30T09:32:16.022Z,101147.31
2022-11-30T09:33:24.936Z,101150.47
2022-11-30T09:36:12.465Z,101153.66
2022-11-30T09:37:34.900Z,101156.19
2022-11-30T09:38:56.822Z,101154.91
2022-11-30T09:40:45.775Z,101146.44
2022-11-30T09:42:35.604Z,101158.69
2022-11-30T09:44:21.427Z,101156.81
2022-11-30T09:45:29.222Z,101150.03
2022-11-30T09:47:44.418Z,101146.84
2022-11-30T09:49:11.226Z,101139.25
2022-11-30T09:50:30.079Z,101144.53
2022-11-30T09:51:55.722Z,101159.72
2022-11-30T09:53:15.044Z,101152.97
2022-11-30T09:54:53.964Z,101153.56
2022-11-30T09:56:20.186Z,101144.50
2022-11-30T09:58:34.042Z,101150.59
2022-11-30T09:59:45.523Z,101144.06
2022-11-30T10:01:32.959Z,101144.72
2022-11-30T10:02:55.587Z,101145.31
2022-11-30T10:05:45.745Z,101135.81
2022-11-30T10:07:15.009Z,101138.34
2022-11-30T10:08:55.232Z,101146.16
2022-11-30T10:10:45.871Z,101136.84
2022-11-30T10:12:39.961Z,101139.16
2022-11-30T10:14:21.031Z,101140.84
2022-11-30T10:15:44.257Z,101140.41
2022-11-30T10:16:55.322Z,101145.06
2022-11-30T10:18:20.278Z,101136.59
2022-11-30T10:19:51.314Z,101143.78
2022-11-30T10:21:33.238Z,101151.81
2022-11-30T10:23:09.421Z,101161.97
2022-11-30T10:24:30.624Z,101144.63
2022-11-30T10:26:03.401Z,101147.16
2022-11-30T10:27:37.454Z,101145.25
2022-11-30T10:28:49.305Z,101144.41
2022-11-30T10:29:59.318Z,101141.88
2022-11-30T10:31:53.714Z,101157.53
2022-11-30T10:33:11.242Z,101144.22
2022-11-30T10:34:32.685Z,101137.88
2022-11-30T10:35:56.201Z,101145.28
2022-11-30T10:37:12.540Z,101152.66
2022-11-30T10:38:32.093Z,101140.84
2022-11-30T10:39:49.877Z,101146.56
2022-11-30T10:41:10.205Z,101152.28
2022-11-30T10:42:34.547Z,101137.06
2022-11-30T10:43:57.996Z,101148.25
2022-11-30T10:45:34.689Z,101139.81
2022-11-30T10:47:11.539Z,101139.81
2022-11-30T10:48:23.957Z,101142.19
2022-11-30T10:51:31.839Z,101136.69
2022-11-30T10:52:47.922Z,101136.88
2022-11-30T10:53:55.198Z,101133.31
2022-11-30T10:55:11.003Z,101131.38
2022-11-30T10:56:30.135Z,101144.28
2022-11-30T10:57:54.858Z,101133.97
2022-11-30T10:59:23.384Z,101127.63
2022-11-30T11:00:37.639Z,101139.47
2022-11-30T11:02:36.095Z,101137.75
2022-11-30T11:03:44.959Z,101133.97
2022-11-30T11:05:29.483Z,101132.06
2022-11-30T11:06:37.635Z,101133.97
2022-11-30T11:07:50.742Z,101147.47
2022-11-30T11:08:57.758Z,101136.50
2022-11-30T11:10:07.701Z,101140.50
2022-11-30T11:11:35.565Z,101137.31
2022-11-30T11:12:57.892Z,101137.09
2022-11-30T11:14:26.982Z,101143.47
2022-11-30T11:15:51.909Z,101132.47
2022-11-30T11:17:06.167Z,101143.47
2022-11-30T11:18:35.129Z,101137.97
2022-11-30T11:19:44.491Z,101139.00
2022-11-30T11:21:22.937Z,101139.22
2022-11-30T11:24:21.627Z,101133.53
2022-11-30T11:25:41.705Z,101131.84
2022-11-30T11:27:07.618Z,101128.47
2022-11-30T11:29:06.536Z,101125.72
2022-11-30T11:32:51.513Z,101128.06
2022-11-30T11:34:51.247Z,101121.09
2022-11-30T11:36:20.881Z,101127.41
2022-11-30T11:37:44.171Z,101122.16
2022-11-30T11:40:23.686Z,101118.56
2022-11-30T11:41:41.392Z,101121.91
2022-11-30T11:43:03.287Z,101119.41
2022-11-30T11:44:13.516Z,101120.44
2022-11-30T11:45:23.019Z,101118.56
2022-11-30T11:47:04.524Z,101118.97
2022-11-30T11:48:44.150Z,101122.78
2022-11-30T11:49:50.897Z,101114.75
2022-11-30T11:51:29.214Z,101113.06
2022-11-30T11:52:31.505Z,101111.81
2022-11-30T11:53:53.909Z,101116.47
2022-11-30T11:55:04.455Z,101117.09
2022-11-30T11:56:20.688Z,101119.03
2022-11-30T11:57:50.136Z,101128.53
2022-11-30T11:59:03.295Z,101119.88
2022-11-30T12:00:16.441Z,101122.84
2022-11-30T12:01:39.871Z,101120.31
2022-11-30T12:03:08.145Z,101121.78
2022-11-30T12:04:33.031Z,101129.38
2022-11-30T12:05:44.483Z,101125.16
2022-11-30T12:06:51.579Z,101124.53
2022-11-30T12:08:08.874Z,101132.34
2022-11-30T12:09:30.030Z,101129.19
2022-11-30T12:10:51.820Z,101127.50
2022-11-30T12:11:54.937Z,101121.41
2022-11-30T12:12:59.723Z,101115.25
2022-11-30T12:14:05.305Z,101115.69
2022-11-30T12:15:15.201Z,101115.06
2022-11-30T12:16:40.788Z,101115.06
2022-11-30T12:18:06.626Z,101117.16
2022-11-30T12:19:20.848Z,101114.84
2022-11-30T12:20:57.532Z,101118.03
2022-11-30T12:22:06.055Z,101108.94
2022-11-30T12:23:32.203Z,101122.03
2022-11-30T12:25:05.767Z,101115.91
2022-11-30T12:26:13.185Z,101119.06
2022-11-30T12:27:24.280Z,101123.91
2022-11-30T12:28:38.731Z,101120.34
2022-11-30T12:29:55.396Z,101121.59
2022-11-30T12:31:12.241Z,101117.38
2022-11-30T12:33:00.379Z,101115.69
2022-11-30T12:34:11.714Z,101118.44
2022-11-30T12:35:39.522Z,101123.25
2022-11-30T12:36:53.799Z,101123.69
2022-11-30T12:38:14.970Z,101115.69
2022-11-30T12:39:45.573Z,101114.84
2022-11-30T12:41:16.192Z,101121.78
2022-11-30T12:42:37.347Z,101115.69
2022-11-30T12:43:47.096Z,101120.53
2022-11-30T12:45:11.821Z,101111.69
2022-11-30T12:46:48.139Z,101124.53
2022-11-30T12:48:12.106Z,101121.16
2022-11-30T12:49:22.257Z,101116.72
2022-11-30T12:50:58.759Z,101123.91
2022-11-30T12:52:25.748Z,101117.78
2022-11-30T12:53:39.962Z,101116.94
2022-11-30T12:55:04.124Z,101119.03
2022-11-30T12:56:19.768Z,101117.34
2022-11-30T12:57:49.084Z,101111.03
2022-11-30T12:59:24.106Z,101117.34
2022-11-30T13:00:32.276Z,101117.56
2022-11-30T13:01:52.448Z,101114.19
2022-11-30T13:03:05.222Z,101125.16
2022-11-30T13:04:27.472Z,101120.72
2022-11-30T13:05:54.861Z,101122.81
2022-11-30T13:07:08.772Z,101128.50
2022-11-30T13:08:29.556Z,101136.72
2022-11-30T13:10:07.779Z,101126.19
2022-11-30T13:11:21.634Z,101126.38
2022-11-30T13:12:37.468Z,101127.47
2022-11-30T13:13:56.504Z,101133.34
2022-11-30T13:15:00.785Z,101123.41
2022-11-30T13:16:10.972Z,101122.59
2022-11-30T13:17:18.402Z,101134.59
2022-11-30T13:18:23.288Z,101135.63